createdAt,value
2023-03-01T00:03:35.735Z,-1.30
2023-03-01T00:07:42.561Z,-1.30
2023-03-01T00:11:49.393Z,-1.40
2023-03-01T00:15:56.062Z,-1.40
2023-03-01T00:20:02.759Z,-1.30
2023-03-01T00:24:10.237Z,-1.30
2023-03-01T00:28:17.693Z,-1.40
2023-03-01T00:32:24.428Z,-1.40
2023-03-01T00:36:34.054Z,-1.50
2023-03-01T00:40:40.900Z,-1.50
2023-03-01T00:44:47.654Z,-1.40
2023-03-01T00:48:54.790Z,-1.40
2023-03-01T00:53:01.528Z,-0.10
2023-03-01T00:57:08.200Z,-1.50
2023-03-01T01:01:21.038Z,-1.50
2023-03-01T01:05:27.753Z,-1.60
2023-03-01T01:09:34.556Z,-1.60
2023-03-01T01:13:41.886Z,-1.60
2023-03-01T01:17:48.567Z,-1.60
2023-03-01T01:21:55.229Z,-1.60
2023-03-01T01:26:09.601Z,-0.60
2023-03-01T01:30:16.414Z,-1.70
2023-03-01T01:34:23.139Z,0.00
2023-03-01T01:38:29.878Z,-1.70
2023-03-01T01:42:36.583Z,-1.80
2023-03-01T01:47:01.081Z,-1.80
2023-03-01T01:51:13.576Z,-1.80
2023-03-01T01:55:28.460Z,-1.80
2023-03-01T01:59:35.608Z,-0.80
2023-03-01T02:03:45.686Z,-1.90
2023-03-01T02:07:53.173Z,-1.90
2023-03-01T02:12:00.210Z,-1.90
2023-03-01T02:16:10.640Z,-1.90
2023-03-01T02:20:23.614Z,-2.00
2023-03-01T02:25:06.238Z,-2.00
2023-03-01T02:29:13.123Z,-2.00
2023-03-01T02:33:19.862Z,-2.00
2023-03-01T02:37:28.055Z,-2.00
2023-03-01T02:41:38.860Z,-2.00
2023-03-01T02:45:54.279Z,-2.10
2023-03-01T02:50:03.382Z,-2.10
2023-03-01T02:54:25.489Z,-2.10
2023-03-01T02:58:32.307Z,-2.10
2023-03-01T03:02:39.150Z,-2.10
2023-03-01T03:06:46.532Z,-2.10
2023-03-01T03:10:53.952Z,-2.00
2023-03-01T03:15:00.652Z,-2.10
2023-03-01T03:19:07.355Z,-2.10
2023-03-01T03:23:14.364Z,-2.10
2023-03-01T03:27:21.087Z,-2.10
2023-03-01T03:31:28.050Z,-2.10
2023-03-01T03:35:40.447Z,-2.20
2023-03-01T03:39:47.144Z,-2.10
2023-03-01T03:43:53.848Z,-2.20
2023-03-01T03:48:01.589Z,-2.10
2023-03-01T03:52:14.362Z,-2.20
2023-03-01T03:56:21.138Z,-2.30
2023-03-01T04:00:27.880Z,-1.40
2023-03-01T04:04:34.609Z,-2.40
2023-03-01T04:08:41.900Z,-2.40
2023-03-01T04:12:48.564Z,-2.50
2023-03-01T04:16:55.360Z,-2.60
2023-03-01T04:21:02.135Z,-2.70
2023-03-01T04:25:09.130Z,-2.70
2023-03-01T04:29:15.843Z,-2.60
2023-03-01T04:33:23.297Z,-2.60
2023-03-01T04:37:30.800Z,-2.70
2023-03-01T04:41:37.623Z,-2.80
2023-03-01T04:45:44.827Z,-2.90
2023-03-01T04:49:51.504Z,-3.00
2023-03-01T04:53:58.171Z,-2.90
2023-03-01T04:58:05.105Z,-2.90
2023-03-01T05:02:12.750Z,-2.90
2023-03-01T05:06:20.962Z,-2.80
2023-03-01T05:10:30.264Z,-3.80
2023-03-01T05:14:39.553Z,-2.20
2023-03-01T05:18:47.150Z,-2.90
2023-03-01T05:22:56.805Z,-2.90
2023-03-01T05:27:07.516Z,-3.70
2023-03-01T05:31:14.727Z,-3.40
2023-03-01T05:35:22.243Z,-2.80
2023-03-01T05:39:32.653Z,-3.10
2023-03-01T05:43:44.565Z,-3.70
2023-03-01T05:47:52.302Z,-2.90
2023-03-01T05:51:59.528Z,-2.30
2023-03-01T05:56:07.240Z,-3.70
2023-03-01T06:00:16.037Z,-4.00
2023-03-01T06:04:23.337Z,-4.20
2023-03-01T06:08:30.231Z,-3.10
2023-03-01T06:12:38.649Z,-3.20
2023-03-01T06:16:45.438Z,-2.80
2023-03-01T06:20:56.594Z,-3.10
2023-03-01T06:25:04.781Z,-3.60
2023-03-01T06:29:16.240Z,-4.20
2023-03-01T06:33:25.288Z,-3.80
2023-03-01T06:37:32.374Z,-3.10
2023-03-01T06:41:42.146Z,-3.20
2023-03-01T06:45:49.244Z,-3.50
2023-03-01T06:49:58.085Z,-3.40
2023-03-01T06:54:08.504Z,-1.40
2023-03-01T06:58:17.424Z,-1.80
2023-03-01T07:02:24.947Z,-2.50
2023-03-01T07:06:39.316Z,-1.00
2023-03-01T07:10:51.681Z,-2.00
2023-03-01T07:15:01.264Z,-2.30
2023-03-01T07:19:08.726Z,-2.80
2023-03-01T07:29:07.863Z,-2.00
2023-03-01T07:33:15.188Z,-1.10
2023-03-01T07:37:21.926Z,-1.80
2023-03-01T07:41:28.824Z,-1.60
2023-03-01T07:45:35.625Z,-1.40
2023-03-01T07:49:42.401Z,-1.10
2023-03-01T07:53:49.276Z,-0.90
2023-03-01T07:57:55.980Z,-0.80
2023-03-01T08:02:02.960Z,-0.50
2023-03-01T08:06:11.716Z,-0.20
2023-03-01T08:10:18.507Z,0.00
2023-03-01T08:14:25.316Z,0.30
2023-03-01T08:18:32.178Z,0.50
2023-03-01T08:22:38.973Z,0.70
2023-03-01T08:26:45.755Z,0.80
2023-03-01T08:30:52.429Z,1.10
2023-03-01T08:34:59.144Z,1.30
2023-03-01T08:39:07.361Z,1.40
2023-03-01T08:43:14.017Z,1.80
2023-03-01T08:47:20.765Z,2.00
2023-03-01T08:51:27.982Z,2.10
2023-03-01T08:55:34.687Z,2.20
2023-03-01T08:59:41.636Z,2.40
2023-03-01T09:03:48.611Z,2.60
2023-03-01T09:07:55.397Z,2.90
2023-03-01T09:12:02.621Z,3.10
2023-03-01T09:16:10.076Z,3.30
2023-03-01T09:20:17.135Z,3.50
2023-03-01T09:24:25.549Z,3.80
2023-03-01T09:28:32.282Z,4.00
2023-03-01T09:32:43.525Z,3.80
2023-03-01T09:36:51.495Z,4.30
2023-03-01T09:40:58.473Z,4.50
2023-03-01T09:45:11.925Z,4.50
2023-03-01T09:49:22.271Z,4.70
2023-03-01T09:53:36.123Z,4.80
2023-03-01T09:58:07.255Z,5.10
2023-03-01T10:02:42.116Z,5.10
2023-03-01T10:07:08.408Z,5.30
2023-03-01T10:11:37.076Z,5.40
2023-03-01T10:15:51.102Z,5.50
2023-03-01T10:20:20.099Z,5.60
2023-03-01T10:24:30.070Z,5.90
2023-03-01T10:28:51.815Z,6.10
2023-03-01T10:32:59.474Z,6.30
2023-03-01T10:37:22.656Z,6.30
2023-03-01T10:41:30.401Z,6.40
2023-03-01T10:45:38.922Z,6.70
2023-03-01T10:49:53.110Z,6.60
2023-03-01T10:53:59.954Z,6.60
2023-03-01T10:58:20.957Z,6.80
2023-03-01T11:02:34.282Z,7.40
2023-03-01T11:06:42.334Z,6.90
2023-03-01T11:10:49.062Z,6.80
2023-03-01T11:14:56.316Z,6.90
2023-03-01T11:19:12.361Z,7.00
2023-03-01T11:23:20.931Z,7.00
2023-03-01T11:27:33.159Z,7.10
2023-03-01T11:31:55.564Z,7.10
2023-03-01T11:36:27.348Z,7.20
2023-03-01T11:40:56.045Z,7.10
2023-03-01T11:45:10.665Z,7.20
2023-03-01T11:49:44.938Z,7.20
2023-03-01T11:54:10.146Z,7.30
2023-03-01T11:58:38.921Z,7.20
2023-03-01T12:03:30.613Z,7.40
2023-03-01T12:08:18.650Z,7.50
2023-03-01T12:12:44.429Z,7.60
2023-03-01T12:17:37.875Z,7.60
2023-03-01T12:22:00.104Z,7.60
2023-03-01T12:26:34.024Z,7.70
2023-03-01T12:30:59.005Z,7.80
2023-03-01T12:35:13.685Z,7.80
2023-03-01T12:39:55.407Z,7.80
2023-03-01T12:44:07.909Z,7.80
2023-03-01T12:48:39.192Z,7.80
2023-03-01T12:52:53.472Z,7.90
2023-03-01T12:57:25.492Z,7.90
2023-03-01T13:01:44.094Z,8.00
2023-03-01T13:06:12.079Z,7.90
2023-03-01T13:10:34.776Z,8.00
2023-03-01T13:14:46.231Z,8.00
2023-03-01T13:19:09.537Z,7.90
2023-03-01T13:23:25.917Z,8.00
2023-03-01T13:27:33.391Z,7.90
2023-03-01T13:31:40.136Z,8.10
2023-03-01T13:35:46.987Z,8.30
2023-03-01T13:39:54.118Z,8.20
2023-03-01T13:44:00.869Z,8.20
2023-03-01T13:48:23.006Z,8.20
2023-03-01T13:52:45.455Z,8.10
2023-03-01T13:56:52.253Z,6.90
2023-03-01T14:01:07.936Z,8.20
2023-03-01T14:05:14.668Z,8.00
2023-03-01T14:09:28.199Z,7.90
2023-03-01T14:13:53.082Z,8.00
2023-03-01T14:18:31.112Z,8.20
2023-03-01T14:22:41.193Z,8.30
2023-03-01T14:26:48.486Z,8.20
2023-03-01T14:30:57.397Z,8.20
2023-03-01T14:35:04.825Z,8.30
2023-03-01T14:39:20.328Z,8.20
2023-03-01T14:43:27.840Z,8.10
2023-03-01T14:47:37.148Z,7.80
2023-03-01T14:51:52.242Z,8.10
2023-03-01T14:56:05.894Z,8.20
2023-03-01T15:00:20.709Z,8.00
2023-03-01T15:04:29.072Z,8.10
2023-03-01T15:08:38.020Z,8.00
2023-03-01T15:12:44.707Z,8.00
2023-03-01T15:16:51.456Z,7.90
2023-03-01T15:21:29.493Z,7.80
2023-03-01T15:25:37.090Z,7.90
2023-03-01T15:29:50.225Z,7.80
2023-03-01T15:34:26.423Z,7.60
2023-03-01T15:38:55.282Z,7.60
2023-03-01T15:43:04.370Z,7.50
2023-03-01T15:47:41.311Z,7.60
2023-03-01T15:51:48.316Z,7.30
2023-03-01T15:55:55.316Z,7.30
2023-03-01T16:00:02.344Z,7.70
2023-03-01T16:04:21.579Z,7.20
2023-03-01T16:08:28.341Z,7.20
2023-03-01T16:12:35.124Z,7.10
2023-03-01T16:16:41.890Z,7.00
2023-03-01T16:20:49.300Z,6.80
2023-03-01T16:24:55.993Z,6.80
2023-03-01T16:29:02.686Z,6.60
2023-03-01T16:33:25.999Z,6.60
2023-03-01T16:37:37.247Z,6.60
2023-03-01T16:41:45.036Z,6.40
2023-03-01T16:45:52.133Z,6.20
2023-03-01T16:49:58.908Z,6.10
2023-03-01T16:54:05.756Z,6.10
2023-03-01T16:58:12.549Z,6.00
2023-03-01T17:02:20.803Z,5.80
2023-03-01T17:06:28.036Z,5.70
2023-03-01T17:10:34.922Z,5.50
2023-03-01T17:14:42.372Z,5.40
2023-03-01T17:18:49.886Z,5.20
2023-03-01T17:22:56.611Z,5.10
2023-03-01T17:27:03.604Z,5.00
2023-03-01T17:31:10.402Z,4.90
2023-03-01T17:35:17.209Z,4.70
2023-03-01T17:39:32.224Z,4.60
2023-03-01T17:43:39.386Z,4.60
2023-03-01T17:47:46.112Z,4.50
2023-03-01T17:51:52.838Z,4.50
2023-03-01T17:56:02.071Z,4.50
2023-03-01T18:00:14.700Z,4.40
2023-03-01T18:04:21.340Z,4.30
2023-03-01T18:08:28.056Z,4.20
2023-03-01T18:12:34.820Z,4.20
2023-03-01T18:16:41.503Z,4.20
2023-03-01T18:20:56.301Z,4.20
2023-03-01T18:25:03.076Z,4.20
2023-03-01T18:29:10.608Z,4.00
2023-03-01T18:33:17.336Z,4.00
2023-03-01T18:37:25.243Z,4.00
2023-03-01T18:41:33.077Z,3.90
2023-03-01T18:45:40.007Z,4.00
2023-03-01T18:49:46.697Z,3.90
2023-03-01T18:53:53.781Z,3.90
2023-03-01T18:58:00.491Z,3.80
2023-03-01T19:02:07.550Z,3.70
2023-03-01T19:06:14.925Z,4.50
2023-03-01T19:10:21.752Z,3.50
2023-03-01T19:14:28.441Z,3.40
2023-03-01T19:18:36.841Z,3.40
2023-03-01T19:22:43.524Z,3.40
2023-03-01T19:26:56.876Z,3.30
2023-03-01T19:31:06.913Z,3.80
2023-03-01T19:35:13.733Z,3.20
2023-03-01T19:39:20.590Z,3.10
2023-03-01T19:43:27.299Z,2.60
2023-03-01T19:47:34.017Z,3.10
2023-03-01T19:51:40.824Z,3.00
2023-03-01T19:55:48.235Z,3.00
2023-03-01T19:59:54.927Z,3.00
2023-03-01T20:04:02.237Z,3.00
2023-03-01T20:08:09.555Z,3.00
2023-03-01T20:12:16.359Z,3.10
2023-03-01T20:16:24.405Z,3.00
2023-03-01T20:20:31.352Z,2.90
2023-03-01T20:24:38.037Z,2.90
2023-03-01T20:28:46.476Z,2.80
2023-03-01T20:32:53.677Z,2.80
2023-03-01T20:37:00.357Z,2.80
2023-03-01T20:41:12.516Z,2.70
2023-03-01T20:45:19.440Z,2.60
2023-03-01T20:49:26.267Z,2.60
2023-03-01T20:53:33.432Z,2.60
2023-03-01T20:57:40.137Z,4.20
2023-03-01T21:01:47.084Z,1.30
2023-03-01T21:05:58.250Z,2.50
2023-03-01T21:10:05.297Z,2.40
2023-03-01T21:14:12.568Z,2.40
2023-03-01T21:18:19.270Z,3.70
2023-03-01T21:22:25.969Z,2.40
2023-03-01T21:26:33.150Z,2.30
2023-03-01T21:30:40.021Z,2.30
2023-03-01T21:34:46.899Z,2.30
2023-03-01T21:38:55.004Z,2.20
2023-03-01T21:43:01.684Z,2.10
2023-03-01T21:47:10.002Z,2.10
2023-03-01T21:51:18.983Z,2.00
2023-03-01T21:55:25.750Z,1.90
2023-03-01T21:59:32.445Z,1.90
2023-03-01T22:03:45.281Z,1.90
2023-03-01T22:07:52.148Z,1.90
2023-03-01T22:12:02.165Z,1.80
2023-03-01T22:16:09.278Z,1.80
2023-03-01T22:20:16.643Z,1.60
2023-03-01T22:24:25.326Z,1.60
2023-03-01T22:28:33.992Z,1.60
2023-03-01T22:32:40.949Z,1.60
2023-03-01T22:36:48.344Z,1.50
2023-03-01T22:41:01.225Z,1.40
2023-03-01T22:45:08.473Z,1.40
2023-03-01T22:49:15.956Z,1.40
2023-03-01T22:53:22.833Z,1.40
2023-03-01T22:57:29.649Z,1.50
2023-03-01T23:01:38.412Z,1.50
2023-03-01T23:05:45.209Z,1.40
2023-03-01T23:09:53.176Z,1.50
2023-03-01T23:14:00.105Z,1.40
2023-03-01T23:18:07.808Z,1.40
2023-03-01T23:22:14.605Z,1.50
2023-03-01T23:26:22.372Z,1.50
2023-03-01T23:30:30.076Z,1.40
2023-03-01T23:34:37.348Z,1.60
2023-03-01T23:38:45.464Z,1.70
2023-03-01T23:42:52.257Z,1.80
2023-03-01T23:46:59.938Z,1.90
2023-03-01T23:51:07.410Z,1.80
2023-03-01T23:55:15.793Z,1.90
2023-03-01T23:59:23.844Z,1.80
